createdAt,value
2023-11-16T00:01:13.007Z,10.39
2023-11-16T00:03:39.803Z,10.45
2023-11-16T00:06:06.664Z,10.35
2023-11-16T00:08:33.396Z,10.46
2023-11-16T00:11:00.069Z,10.56
2023-11-16T00:13:26.744Z,10.21
2023-11-16T00:15:53.462Z,9.80
2023-11-16T00:18:20.250Z,9.46
2023-11-16T00:20:47.064Z,9.63
2023-11-16T00:23:13.714Z,9.73
2023-11-16T00:25:40.362Z,9.76
2023-11-16T00:28:07.046Z,9.99
2023-11-16T00:30:33.746Z,9.58
2023-11-16T00:33:00.560Z,9.75
2023-11-16T00:35:27.415Z,9.35
2023-11-16T00:37:54.155Z,9.60
2023-11-16T00:40:20.973Z,9.52
2023-11-16T00:42:47.654Z,9.57
2023-11-16T00:45:14.567Z,9.81
2023-11-16T00:47:41.438Z,9.93
2023-11-16T00:50:08.649Z,9.73
2023-11-16T00:52:35.383Z,9.50
2023-11-16T00:55:02.199Z,9.04
2023-11-16T00:57:28.970Z,9.64
2023-11-16T00:59:55.751Z,9.17
2023-11-16T01:02:22.522Z,8.92
2023-11-16T01:04:49.295Z,9.03
2023-11-16T01:07:16.040Z,9.19
2023-11-16T01:09:42.822Z,8.87
2023-11-16T01:12:09.836Z,9.02
2023-11-16T01:14:36.625Z,8.40
2023-11-16T01:17:03.457Z,8.51
2023-11-16T01:19:30.234Z,8.36
2023-11-16T01:21:56.887Z,8.56
2023-11-16T01:24:23.601Z,8.31
2023-11-16T01:26:50.498Z,8.16
2023-11-16T01:29:17.148Z,8.09
2023-11-16T01:31:43.860Z,8.03
2023-11-16T01:34:10.534Z,7.87
2023-11-16T01:36:38.357Z,7.38
2023-11-16T01:39:05.582Z,7.21
2023-11-16T01:41:32.386Z,7.28
2023-11-16T01:43:59.037Z,7.55
2023-11-16T01:46:26.059Z,7.61
2023-11-16T01:48:55.499Z,7.15
2023-11-16T01:51:25.121Z,7.11
2023-11-16T01:53:58.341Z,7.20
2023-11-16T01:56:31.503Z,7.13
2023-11-16T01:59:02.333Z,6.92
2023-11-16T02:01:31.672Z,6.83
2023-11-16T02:03:58.526Z,7.09
2023-11-16T02:06:25.388Z,7.00
2023-11-16T02:08:52.514Z,7.12
2023-11-16T02:11:19.813Z,6.95
2023-11-16T02:13:46.538Z,7.18
2023-11-16T02:16:13.215Z,6.96
2023-11-16T02:18:39.984Z,7.11
2023-11-16T02:21:06.970Z,7.39
2023-11-16T02:23:34.381Z,7.46
2023-11-16T02:26:01.582Z,7.61
2023-11-16T02:28:28.472Z,7.80
2023-11-16T02:30:55.171Z,7.67
2023-11-16T02:33:21.988Z,8.00
2023-11-16T02:35:49.213Z,8.08
2023-11-16T02:38:15.863Z,8.24
2023-11-16T02:40:43.034Z,7.92
2023-11-16T02:43:10.003Z,7.85
2023-11-16T02:45:36.892Z,7.91
2023-11-16T02:48:04.579Z,7.74
2023-11-16T02:50:31.458Z,8.07
2023-11-16T02:52:58.144Z,8.18
2023-11-16T02:55:25.134Z,7.73
2023-11-16T02:57:53.906Z,8.06
2023-11-16T03:00:20.723Z,7.95
2023-11-16T03:02:47.496Z,8.04
2023-11-16T03:05:15.091Z,7.70
2023-11-16T03:07:42.968Z,8.06
2023-11-16T03:10:10.293Z,7.99
2023-11-16T03:12:37.017Z,7.63
2023-11-16T03:15:04.509Z,7.64
2023-11-16T03:17:31.193Z,7.87
2023-11-16T03:19:57.894Z,7.95
2023-11-16T03:22:24.554Z,7.85
2023-11-16T03:24:51.371Z,8.17
2023-11-16T03:27:18.065Z,8.06
2023-11-16T03:29:45.278Z,7.77
2023-11-16T03:32:13.933Z,7.68
2023-11-16T03:34:40.703Z,7.70
2023-11-16T03:37:07.708Z,7.62
2023-11-16T03:39:34.712Z,7.84
2023-11-16T03:42:02.273Z,7.82
2023-11-16T03:44:28.954Z,7.59
2023-11-16T03:46:56.712Z,7.48
2023-11-16T03:49:24.295Z,7.81
2023-11-16T03:51:51.823Z,8.22
2023-11-16T03:54:18.856Z,8.18
2023-11-16T03:56:46.059Z,8.10
2023-11-16T03:59:12.869Z,7.79
2023-11-16T04:01:39.917Z,7.85
2023-11-16T04:04:06.968Z,8.18
2023-11-16T04:06:33.698Z,8.39
2023-11-16T04:09:00.542Z,8.48
2023-11-16T04:11:27.259Z,8.66
2023-11-16T04:14:14.101Z,8.80
2023-11-16T04:16:40.813Z,8.57
2023-11-16T04:19:07.675Z,8.89
2023-11-16T04:21:34.486Z,8.76
2023-11-16T04:24:01.190Z,8.80
2023-11-16T04:26:28.811Z,8.72
2023-11-16T04:28:55.994Z,8.40
2023-11-16T04:31:23.024Z,8.78
2023-11-16T04:33:49.868Z,8.76
2023-11-16T04:36:18.261Z,8.95
2023-11-16T04:38:48.174Z,8.98
2023-11-16T04:41:17.830Z,9.07
2023-11-16T04:43:44.716Z,9.01
2023-11-16T04:46:12.473Z,8.80
2023-11-16T04:48:42.067Z,8.58
2023-11-16T04:51:08.869Z,8.69
2023-11-16T04:53:35.633Z,9.07
2023-11-16T04:56:02.333Z,9.18
2023-11-16T04:58:29.121Z,8.82
2023-11-16T05:00:55.872Z,8.78
2023-11-16T05:03:22.693Z,8.84
2023-11-16T05:05:49.424Z,9.02
2023-11-16T05:08:16.126Z,8.86
2023-11-16T05:10:43.186Z,8.86
2023-11-16T05:13:09.917Z,9.02
2023-11-16T05:15:37.735Z,8.75
2023-11-16T05:18:05.435Z,8.76
2023-11-16T05:20:32.101Z,8.38
2023-11-16T05:22:58.777Z,8.33
2023-11-16T05:25:25.436Z,8.50
2023-11-16T05:27:52.144Z,8.08
2023-11-16T05:30:19.064Z,8.29
2023-11-16T05:32:45.767Z,8.57
2023-11-16T05:35:12.450Z,8.67
2023-11-16T05:37:39.116Z,8.50
2023-11-16T05:40:06.992Z,8.44
2023-11-16T05:42:34.034Z,8.43
2023-11-16T05:45:00.774Z,8.62
2023-11-16T05:47:27.442Z,8.52
2023-11-16T05:49:54.141Z,8.43
2023-11-16T05:52:20.795Z,7.90
2023-11-16T05:54:47.513Z,7.97
2023-11-16T05:57:14.227Z,8.02
2023-11-16T05:59:41.802Z,7.81
2023-11-16T06:02:08.648Z,7.64
2023-11-16T06:04:35.348Z,8.05
2023-11-16T06:07:02.263Z,8.27
2023-11-16T06:09:28.962Z,8.43
2023-11-16T06:11:55.625Z,8.54
2023-11-16T06:14:26.061Z,8.77
2023-11-16T06:16:57.068Z,8.90
2023-11-16T06:19:23.752Z,8.94
2023-11-16T06:21:50.602Z,9.27
2023-11-16T06:24:17.385Z,8.80
2023-11-16T06:26:45.598Z,8.97
2023-11-16T06:29:12.452Z,8.93
2023-11-16T06:31:39.216Z,9.36
2023-11-16T06:34:05.919Z,9.67
2023-11-16T06:36:32.598Z,9.67
2023-11-16T06:38:59.355Z,9.89
2023-11-16T06:41:26.032Z,9.63
2023-11-16T06:43:52.770Z,9.76
2023-11-16T06:46:19.451Z,9.34
2023-11-16T06:48:46.191Z,9.73
2023-11-16T06:51:12.854Z,9.86
2023-11-16T06:53:39.524Z,9.91
2023-11-16T06:56:06.694Z,9.89
2023-11-16T06:58:33.862Z,9.86
2023-11-16T07:01:00.509Z,9.53
2023-11-16T07:03:27.355Z,9.93
2023-11-16T07:05:54.149Z,10.07
2023-11-16T07:08:21.275Z,9.52
2023-11-16T07:10:48.007Z,8.97
2023-11-16T07:13:14.675Z,9.29
2023-11-16T07:15:47.946Z,9.53
2023-11-16T07:18:14.936Z,9.33
2023-11-16T07:20:41.893Z,9.44
2023-11-16T07:23:08.579Z,9.79
2023-11-16T07:25:35.276Z,10.02
2023-11-16T07:28:02.149Z,9.89
2023-11-16T07:30:28.890Z,9.88
2023-11-16T07:32:57.655Z,10.26
2023-11-16T07:35:24.362Z,10.16
2023-11-16T07:37:51.021Z,10.13
2023-11-16T07:40:19.129Z,10.04
2023-11-16T07:42:46.922Z,10.13
2023-11-16T07:45:13.919Z,10.22
2023-11-16T07:47:41.738Z,9.86
2023-11-16T07:50:10.985Z,10.04
2023-11-16T07:52:40.414Z,10.55
2023-11-16T07:55:07.366Z,10.47
2023-11-16T07:57:34.036Z,9.80
2023-11-16T08:00:00.698Z,10.20
2023-11-16T08:02:27.383Z,10.10
2023-11-16T08:04:54.165Z,9.95
2023-11-16T08:07:20.877Z,9.95
2023-11-16T08:09:47.580Z,9.91
2023-11-16T08:12:14.301Z,9.72
2023-11-16T08:14:40.987Z,10.05
2023-11-16T08:17:07.649Z,9.82
2023-11-16T08:19:34.306Z,9.83
2023-11-16T08:22:01.098Z,9.52
2023-11-16T08:24:28.571Z,9.85
2023-11-16T08:26:55.843Z,10.18
2023-11-16T08:29:22.504Z,10.19
2023-11-16T08:31:49.177Z,10.48
2023-11-16T08:34:15.821Z,10.55
2023-11-16T08:36:42.568Z,10.72
2023-11-16T08:39:09.261Z,10.52
2023-11-16T08:41:36.044Z,10.11
2023-11-16T08:44:02.736Z,9.50
2023-11-16T08:46:29.484Z,9.17
2023-11-16T08:48:56.216Z,9.23
2023-11-16T08:51:22.987Z,9.36
2023-11-16T08:53:50.687Z,9.56
2023-11-16T08:56:23.837Z,9.07
2023-11-16T08:58:57.224Z,9.34
2023-11-16T09:01:24.713Z,9.67
2023-11-16T09:03:51.436Z,9.08
2023-11-16T09:06:18.991Z,9.30
2023-11-16T09:08:51.979Z,9.84
2023-11-16T09:11:19.579Z,10.17
2023-11-16T09:13:46.333Z,10.12
2023-11-16T09:16:13.305Z,10.39
2023-11-16T09:18:40.470Z,10.26
2023-11-16T09:21:08.341Z,10.36
2023-11-16T09:23:35.696Z,10.26
2023-11-16T09:26:02.799Z,10.71
2023-11-16T09:28:29.873Z,10.76
2023-11-16T09:30:57.857Z,10.84
2023-11-16T09:33:24.655Z,11.03
2023-11-16T09:35:51.405Z,10.28
2023-11-16T09:38:18.036Z,10.76
2023-11-16T09:40:44.992Z,10.40
2023-11-16T09:43:11.684Z,10.43
2023-11-16T09:45:39.440Z,10.65
2023-11-16T09:48:07.132Z,11.17
2023-11-16T09:50:33.884Z,11.10
2023-11-16T09:53:00.590Z,11.33
2023-11-16T09:55:28.485Z,11.44
2023-11-16T09:57:57.092Z,10.84
2023-11-16T10:00:23.827Z,10.51
2023-11-16T10:02:50.706Z,10.85
2023-11-16T10:05:22.891Z,10.93
2023-11-16T10:07:50.809Z,11.09
2023-11-16T10:10:17.485Z,10.58
2023-11-16T10:12:50.566Z,11.09
2023-11-16T10:15:18.458Z,11.19
2023-11-16T10:17:45.177Z,11.30
2023-11-16T10:20:12.182Z,11.34
2023-11-16T10:22:38.828Z,11.29
2023-11-16T10:25:06.307Z,10.95
2023-11-16T10:27:34.101Z,11.28
2023-11-16T10:30:01.704Z,11.12
2023-11-16T10:32:28.389Z,11.15
2023-11-16T10:34:55.240Z,10.97
2023-11-16T10:37:23.479Z,10.93
2023-11-16T10:39:52.917Z,10.81
2023-11-16T10:42:20.614Z,11.20
2023-11-16T10:44:51.659Z,10.79
2023-11-16T10:47:19.728Z,10.34
2023-11-16T10:49:46.892Z,10.70
2023-11-16T10:52:16.995Z,10.40
2023-11-16T10:54:49.969Z,9.73
2023-11-16T10:57:17.412Z,10.35
2023-11-16T10:59:45.466Z,11.03
2023-11-16T11:02:12.679Z,11.19
2023-11-16T11:04:39.583Z,11.49
2023-11-16T11:07:09.658Z,10.59
2023-11-16T11:09:48.864Z,10.43
2023-11-16T11:12:15.646Z,10.69
2023-11-16T11:14:44.741Z,10.78
2023-11-16T11:17:17.093Z,11.07
2023-11-16T11:19:57.774Z,11.34
2023-11-16T11:22:28.946Z,11.18
2023-11-16T11:24:56.705Z,11.42
2023-11-16T11:27:23.433Z,11.63
2023-11-16T11:29:50.086Z,10.94
2023-11-16T11:32:26.262Z,10.51
2023-11-16T11:34:53.170Z,10.72
2023-11-16T11:37:19.821Z,10.55
2023-11-16T11:39:48.084Z,10.55
2023-11-16T11:42:15.971Z,10.41
2023-11-16T11:44:54.195Z,9.99
2023-11-16T11:47:22.503Z,9.78
2023-11-16T11:49:51.577Z,9.32
2023-11-16T11:52:18.669Z,9.34
2023-11-16T11:54:45.431Z,9.17
2023-11-16T11:57:12.927Z,9.34
2023-11-16T11:59:39.713Z,9.17
2023-11-16T12:02:09.350Z,9.25
2023-11-16T12:04:38.297Z,9.56
2023-11-16T12:07:10.443Z,9.71
2023-11-16T12:09:38.894Z,9.88
2023-11-16T12:12:06.931Z,9.44
2023-11-16T12:14:54.656Z,9.70
2023-11-16T12:17:21.328Z,9.68
2023-11-16T12:19:48.340Z,9.67
2023-11-16T12:22:15.027Z,9.68
2023-11-16T12:24:42.574Z,9.60
2023-11-16T12:27:15.643Z,9.64
2023-11-16T12:29:54.673Z,9.73
2023-11-16T12:32:22.271Z,9.32
2023-11-16T12:34:49.011Z,9.48
2023-11-16T12:37:15.761Z,9.28
2023-11-16T12:39:42.535Z,9.27
2023-11-16T12:42:10.765Z,9.48
2023-11-16T12:44:37.449Z,9.74
2023-11-16T12:47:04.607Z,10.00
2023-11-16T12:49:31.307Z,9.60
2023-11-16T12:51:58.085Z,9.86
2023-11-16T12:54:24.841Z,10.02
2023-11-16T12:56:51.549Z,10.00
2023-11-16T12:59:18.367Z,9.89
2023-11-16T13:01:45.052Z,10.31
2023-11-16T13:04:11.888Z,10.16
2023-11-16T13:06:39.168Z,10.20
2023-11-16T13:09:06.138Z,10.76
2023-11-16T13:11:32.867Z,11.25
2023-11-16T13:13:59.544Z,11.84
2023-11-16T13:16:26.213Z,11.83
2023-11-16T13:18:52.897Z,11.65
2023-11-16T13:21:19.624Z,11.43
2023-11-16T13:23:46.335Z,11.58
2023-11-16T13:26:14.076Z,11.15
2023-11-16T13:28:40.938Z,11.46
2023-11-16T13:31:07.630Z,11.47
2023-11-16T13:33:34.473Z,11.40
2023-11-16T13:36:01.344Z,11.15
2023-11-16T13:38:28.482Z,11.45
2023-11-16T13:40:55.313Z,11.13
2023-11-16T13:43:22.065Z,10.59
2023-11-16T13:45:51.219Z,11.09
2023-11-16T13:48:17.984Z,11.64
2023-11-16T13:50:44.921Z,11.91
2023-11-16T13:53:11.817Z,11.82
2023-11-16T13:55:38.589Z,11.33
2023-11-16T13:58:05.555Z,11.49
2023-11-16T14:00:32.309Z,11.96
2023-11-16T14:02:59.066Z,12.01
2023-11-16T14:05:25.847Z,11.94
2023-11-16T14:07:52.587Z,12.15
2023-11-16T14:10:24.163Z,12.25
2023-11-16T14:12:52.060Z,12.46
2023-11-16T14:15:19.169Z,12.13
2023-11-16T14:17:45.953Z,12.22
2023-11-16T14:20:12.824Z,12.29
2023-11-16T14:22:39.555Z,12.14
2023-11-16T14:25:08.846Z,12.22
2023-11-16T14:27:38.865Z,11.63
2023-11-16T14:30:06.683Z,11.28
2023-11-16T14:32:33.815Z,11.48
2023-11-16T14:35:13.571Z,11.44
2023-11-16T14:37:44.280Z,11.76
2023-11-16T14:40:11.731Z,12.13
2023-11-16T14:42:38.529Z,11.74
2023-11-16T14:45:05.801Z,11.78
2023-11-16T14:47:39.115Z,11.65
2023-11-16T14:50:08.068Z,11.32
2023-11-16T14:52:34.747Z,11.64
2023-11-16T14:55:01.627Z,11.57
2023-11-16T14:57:28.849Z,11.49
2023-11-16T14:59:55.891Z,11.99
2023-11-16T15:02:22.671Z,11.89
2023-11-16T15:04:49.401Z,11.79
2023-11-16T15:07:16.050Z,12.01
2023-11-16T15:09:42.717Z,11.49
2023-11-16T15:12:09.481Z,11.76
2023-11-16T15:14:36.443Z,11.83
2023-11-16T15:17:04.096Z,12.31
2023-11-16T15:19:31.428Z,12.30
2023-11-16T15:21:58.694Z,12.40
2023-11-16T15:24:25.521Z,12.57
2023-11-16T15:26:52.572Z,12.44
2023-11-16T15:29:19.473Z,12.74
2023-11-16T15:31:46.361Z,12.03
2023-11-16T15:34:14.215Z,11.16
2023-11-16T15:36:41.176Z,11.67
2023-11-16T15:39:08.139Z,12.24
2023-11-16T15:41:34.938Z,11.98
2023-11-16T15:44:04.528Z,11.99
2023-11-16T15:46:31.350Z,12.44
2023-11-16T15:48:59.407Z,12.81
2023-11-16T15:51:27.618Z,11.99
2023-11-16T15:53:56.395Z,11.59
2023-11-16T15:56:24.799Z,11.87
2023-11-16T15:58:52.934Z,11.74
2023-11-16T16:01:20.368Z,11.89
2023-11-16T16:03:47.944Z,11.41
2023-11-16T16:06:18.130Z,11.67
2023-11-16T16:08:46.899Z,11.78
2023-11-16T16:11:13.600Z,11.44
2023-11-16T16:13:45.156Z,11.66
2023-11-16T16:16:11.917Z,12.07
2023-11-16T16:18:38.753Z,12.28
2023-11-16T16:21:09.022Z,12.55
2023-11-16T16:23:35.902Z,12.49
2023-11-16T16:26:02.732Z,12.20
2023-11-16T16:28:29.431Z,12.03
2023-11-16T16:30:56.138Z,12.04
2023-11-16T16:33:22.848Z,12.09
2023-11-16T16:35:52.225Z,12.24
2023-11-16T16:38:19.006Z,12.32
2023-11-16T16:40:45.833Z,12.47
2023-11-16T16:43:12.564Z,12.55
2023-11-16T16:45:43.671Z,12.38
2023-11-16T16:48:11.524Z,12.24
2023-11-16T16:50:38.701Z,12.08
2023-11-16T16:53:05.575Z,12.11
2023-11-16T16:55:32.415Z,12.14
2023-11-16T16:57:59.125Z,12.11
2023-11-16T17:00:30.175Z,12.01
2023-11-16T17:02:57.282Z,12.10
2023-11-16T17:05:25.983Z,12.04
2023-11-16T17:07:52.815Z,12.02
2023-11-16T17:10:19.618Z,12.04
2023-11-16T17:12:46.314Z,12.13
2023-11-16T17:15:13.173Z,12.09
2023-11-16T17:17:40.300Z,12.26
2023-11-16T17:20:07.266Z,12.18
2023-11-16T17:22:33.934Z,12.13
2023-11-16T17:25:00.756Z,12.21
2023-11-16T17:27:27.529Z,12.23
2023-11-16T17:29:55.931Z,12.11
2023-11-16T17:32:22.723Z,12.14
2023-11-16T17:34:49.521Z,12.17
2023-11-16T17:37:16.267Z,11.99
2023-11-16T17:39:42.992Z,12.13
2023-11-16T17:42:09.793Z,12.09
2023-11-16T17:44:36.804Z,12.20
2023-11-16T17:47:03.579Z,12.29
2023-11-16T17:49:30.265Z,12.23
2023-11-16T17:51:56.980Z,12.40
2023-11-16T17:54:23.621Z,12.36
2023-11-16T17:56:50.350Z,12.26
2023-11-16T17:59:17.283Z,12.31
2023-11-16T18:01:44.129Z,12.32
2023-11-16T18:04:11.212Z,12.03
2023-11-16T18:06:39.055Z,12.02
2023-11-16T18:09:05.746Z,12.19
2023-11-16T18:11:34.775Z,12.55
2023-11-16T18:14:05.353Z,12.49
2023-11-16T18:16:32.160Z,12.66
2023-11-16T18:18:59.096Z,12.67
2023-11-16T18:21:25.988Z,12.74
2023-11-16T18:23:52.916Z,12.82
2023-11-16T18:26:20.039Z,13.01
2023-11-16T18:28:46.830Z,12.90
2023-11-16T18:31:13.811Z,12.98
2023-11-16T18:33:40.607Z,12.97
2023-11-16T18:36:08.477Z,12.91
2023-11-16T18:38:35.242Z,12.98
2023-11-16T18:41:02.508Z,13.01
2023-11-16T18:43:30.353Z,12.96
2023-11-16T18:45:57.150Z,12.96
2023-11-16T18:48:24.032Z,12.71
2023-11-16T18:50:50.827Z,12.70
2023-11-16T18:53:17.569Z,12.59
2023-11-16T18:55:44.413Z,12.55
2023-11-16T18:58:11.297Z,12.36
2023-11-16T19:00:38.215Z,12.43
2023-11-16T19:03:12.723Z,12.62
2023-11-16T19:05:40.887Z,12.72
2023-11-16T19:08:07.946Z,12.72
2023-11-16T19:10:37.434Z,12.81
2023-11-16T19:13:04.183Z,12.93
2023-11-16T19:15:31.086Z,12.84
2023-11-16T19:17:57.826Z,12.94
2023-11-16T19:20:24.544Z,13.10
2023-11-16T19:22:52.849Z,12.97
2023-11-16T19:25:20.274Z,12.89
2023-11-16T19:27:47.101Z,12.72
2023-11-16T19:30:14.373Z,12.79
2023-11-16T19:32:44.988Z,12.85
2023-11-16T19:35:11.752Z,12.75
2023-11-16T19:37:38.507Z,12.57
2023-11-16T19:40:05.658Z,12.68
2023-11-16T19:42:32.476Z,12.65
2023-11-16T19:45:21.223Z,12.74
2023-11-16T19:47:47.988Z,12.48
2023-11-16T19:50:15.701Z,12.53
2023-11-16T19:52:42.403Z,12.47
2023-11-16T19:55:09.263Z,12.40
2023-11-16T19:57:36.041Z,12.20
2023-11-16T20:00:03.011Z,12.10
2023-11-16T20:02:29.904Z,11.99
2023-11-16T20:04:57.438Z,11.76
2023-11-16T20:07:24.172Z,11.75
2023-11-16T20:09:51.223Z,11.88
2023-11-16T20:12:19.352Z,12.03
2023-11-16T20:14:49.195Z,12.13
2023-11-16T20:17:15.950Z,12.32
2023-11-16T20:19:42.704Z,12.09
2023-11-16T20:22:09.534Z,12.07
2023-11-16T20:24:42.353Z,12.15
2023-11-16T20:27:09.119Z,12.25
2023-11-16T20:29:36.403Z,12.17
2023-11-16T20:32:03.321Z,12.08
2023-11-16T20:34:30.369Z,12.05
2023-11-16T20:36:57.254Z,12.08
2023-11-16T20:39:27.519Z,11.81
2023-11-16T20:41:57.615Z,11.81
2023-11-16T20:44:24.472Z,12.02
2023-11-16T20:46:51.763Z,12.00
2023-11-16T20:49:18.593Z,12.11
2023-11-16T20:51:45.464Z,12.05
2023-11-16T20:54:12.279Z,11.94
2023-11-16T20:56:39.031Z,11.86
2023-11-16T20:59:06.388Z,11.83
2023-11-16T21:01:38.204Z,11.71
2023-11-16T21:04:05.662Z,11.57
2023-11-16T21:06:33.214Z,11.52
2023-11-16T21:09:00.724Z,11.59
2023-11-16T21:11:27.389Z,11.51
2023-11-16T21:13:54.407Z,11.49
2023-11-16T21:16:21.148Z,11.68
2023-11-16T21:18:48.046Z,11.81
2023-11-16T21:21:15.921Z,11.79
2023-11-16T21:23:42.996Z,11.83
2023-11-16T21:26:10.864Z,11.82
2023-11-16T21:28:38.076Z,11.78
2023-11-16T21:31:05.054Z,11.64
2023-11-16T21:33:31.778Z,11.62
2023-11-16T21:35:58.601Z,11.66
2023-11-16T21:38:25.370Z,11.61
2023-11-16T21:40:54.460Z,11.64
2023-11-16T21:43:21.387Z,11.90
2023-11-16T21:46:19.811Z,11.65
2023-11-16T21:48:46.569Z,11.51
2023-11-16T21:51:13.224Z,11.46
2023-11-16T21:53:45.986Z,11.42
2023-11-16T21:56:12.699Z,11.52
2023-11-16T21:58:39.458Z,11.40
2023-11-16T22:01:06.651Z,11.35
2023-11-16T22:03:33.458Z,11.24
2023-11-16T22:06:00.171Z,11.42
2023-11-16T22:08:26.910Z,11.28
2023-11-16T22:10:53.712Z,11.27
2023-11-16T22:13:20.427Z,11.16
2023-11-16T22:15:49.929Z,11.05
2023-11-16T22:18:22.815Z,11.21
2023-11-16T22:20:52.144Z,10.99
2023-11-16T22:23:20.897Z,10.98
2023-11-16T22:25:48.031Z,10.64
2023-11-16T22:28:17.446Z,10.59
2023-11-16T22:30:44.203Z,10.64
2023-11-16T22:33:18.553Z,10.75
2023-11-16T22:35:45.397Z,10.55
2023-11-16T22:38:12.227Z,10.43
2023-11-16T22:41:05.278Z,10.50
2023-11-16T22:43:34.914Z,10.54
2023-11-16T22:46:04.441Z,10.58
2023-11-16T22:48:34.500Z,10.55
2023-11-16T22:51:07.915Z,10.69
2023-11-16T22:53:39.545Z,10.53
2023-11-16T22:56:12.208Z,10.64
2023-11-16T22:58:41.889Z,10.62
2023-11-16T23:01:11.611Z,10.59
2023-11-16T23:03:44.974Z,10.76
2023-11-16T23:06:20.976Z,10.89
2023-11-16T23:08:53.550Z,10.76
2023-11-16T23:11:20.298Z,10.58
2023-11-16T23:13:50.015Z,10.72
2023-11-16T23:16:19.308Z,10.75
2023-11-16T23:18:50.716Z,10.78
2023-11-16T23:21:30.230Z,10.59
2023-11-16T23:24:09.839Z,10.61
2023-11-16T23:26:36.660Z,10.52
2023-11-16T23:29:03.457Z,10.58
2023-11-16T23:31:30.234Z,10.71
2023-11-16T23:33:58.737Z,10.86
2023-11-16T23:36:29.722Z,10.68
2023-11-16T23:38:56.792Z,10.44
2023-11-16T23:41:23.873Z,10.56
2023-11-16T23:43:50.825Z,10.66
2023-11-16T23:46:17.491Z,10.57
2023-11-16T23:48:44.200Z,10.52
2023-11-16T23:51:16.033Z,10.35
2023-11-16T23:53:48.234Z,10.37
2023-11-16T23:56:14.856Z,10.56
2023-11-16T23:58:41.520Z,10.69
